Flight Track Log - Related Links

Times and Time Zones

All times are in EDT time to prevent confusion due to time zone crossing. See the SKW6520 flight status page for this flight to view local times or setup timezone preferences in your user account.

Time Position Orientation Groundspeed Altitude Reporting Facility
EDT Latitude Longitude Course Direction KTS MPH feet Rate Location/Type
Mon 01:25:00 PM 42.2887 -88.4263 309° West  Level Estimated
Mon 01:26:00 PM 42.3499 -88.5308 308° West  Level Estimated
Mon 01:27:00 PM 42.4109 -88.6356 308° West  Level Estimated
Mon 01:28:00 PM 42.4719 -88.7405 308° West  Level Estimated
Mon 01:29:00 PM 42.5327 -88.8456 308° West  Level Estimated
Mon 01:30:00 PM 42.5935 -88.9510 308° West  Level Estimated
Mon 01:31:00 PM 42.6541 -89.0565 308° West  Level Estimated
Mon 01:32:00 PM 42.7147 -89.1623 308° West  Level Estimated
Mon 01:33:00 PM 42.7752 -89.2683 308° West  Level Estimated
Mon 01:34:00 PM 42.8355 -89.3745 308° West  Level Estimated
Mon 01:35:00 PM 42.8958 -89.4808 308° West  Level Estimated
Mon 01:36:00 PM 42.9560 -89.5874 308° West  Level Estimated
Mon 01:37:00 PM 43.0160 -89.6942 308° West  Level Estimated
Mon 01:38:00 PM 43.0760 -89.8012 308° West  Level Estimated
Mon 01:39:00 PM 43.1359 -89.9084 307° West  Level Estimated
Mon 01:40:00 PM 43.1956 -90.0159 307° West  Level Estimated
Mon 01:41:00 PM 43.2553 -90.1235 307° West  Level Estimated
Mon 01:42:00 PM 43.3149 -90.2314 307° West  Level Estimated
Mon 01:43:00 PM 43.3744 -90.3394 307° West  Level Estimated
Mon 01:44:00 PM 43.4337 -90.4477 307° West  Level Estimated
Mon 01:45:00 PM 43.4930 -90.5562 307° West  Level Estimated
Mon 01:46:00 PM 43.5521 -90.6649 307° West  Level Estimated
Mon 01:47:00 PM 43.6112 -90.7738 307° West  Level Estimated
Mon 01:48:00 PM 43.6702 -90.8829 307° West  Level Estimated
Mon 01:49:00 PM 43.7290 -90.9922 307° West  Level Estimated
Mon 01:50:00 PM 43.7877 -91.1018 307° West  Level Estimated
Mon 01:51:00 PM 43.8464 -91.2116 307° West  Level Estimated
Mon 01:52:00 PM 43.9049 -91.3215 306° West  Level Estimated
Mon 01:53:00 PM 43.9633 -91.4317 306° West  Level Estimated
Mon 01:54:00 PM 44.0217 -91.5422 306° West  Level Estimated
Mon 01:55:00 PM 44.0799 -91.6528 306° West  Level Estimated
Mon 01:56:00 PM 44.1380 -91.7636 306° West  Level Estimated
Mon 01:57:00 PM 44.1960 -91.8747 306° West  Level Estimated
Mon 01:58:00 PM 44.2539 -91.9860 306° West  Level Estimated
Mon 01:59:00 PM 44.3117 -92.0975 306° West  Level Estimated
Mon 02:00:00 PM 44.3693 -92.2093 306° West  Level Estimated
Mon 02:01:00 PM 44.4269 -92.3212 306° West  Level Estimated
Mon 02:02:00 PM 44.4844 -92.4334 306° West  Level Estimated
Mon 02:03:00 PM 44.5417 -92.5458 306° West  Level Estimated
Mon 02:04:00 PM 44.5990 -92.6584 306° West  Level Estimated
Mon 02:05:00 PM 44.6561 -92.7712 305° West  Level Estimated
Mon 02:06:00 PM 44.7131 -92.8843 305° West  Level Estimated
Mon 02:07:00 PM 44.7700 -92.9975 305° West  Level Estimated
Mon 02:08:00 PM 44.8268 -93.1110 305° West  Level Estimated
Mon 02:09:00 PM 44.8820 -93.2218 305° West  Level Estimated
Mon 02:10:00 PM 44.8820 -93.2218 35° Northeast  Level Estimated
Mon 02:11:00 PM 44.8820 -93.2218 35° Northeast  Level Estimated
Mon 02:12:00 PM 44.8820 -93.2218 35° Northeast  Level Estimated
Mon 02:13:00 PM 44.8820 -93.2218 35° Northeast  Level Estimated
Mon 02:14:00 PM 44.8820 -93.2218 35° Northeast  Level Estimated
Mon 02:15:00 PM 44.8820 -93.2218 35° Northeast  Level Estimated
Mon 02:16:00 PM 44.8820 -93.2218 35° Northeast  Level Estimated
Mon 02:17:00 PM 44.8820 -93.2218 35° Northeast  Level Estimated
Mon 02:18:00 PM 44.8820 -93.2218 35° Northeast  Level Estimated
Mon 02:19:00 PM 44.8820 -93.2218 35° Northeast  Level Estimated
Mon 02:20:00 PM 44.8820 -93.2218 35° Northeast  Level Estimated
Mon 02:21:00 PM 44.8820 -93.2218 35° Northeast  Level Estimated
Mon 02:22:00 PM 44.8820 -93.2218 35° Northeast  Level Estimated

Login

Don't have an account? Register now (free) for customized features, flight alerts, and more!